CAL8 RCTP-KLAX
Flight info
| Callsign | CAL8 |
|---|---|
| Flight time | N/A |
| Altitude | 33000 |
| Route | MOLKA1A ROBIN R583 BORDO Z29 GAKIA Y293 YULIA Y57 POROT Y809 IDLAN/N0488F350 Y812 ADNAP OTR5 KALNA DCT 42N160E 43N170E 43N180E 43N170W/N0478F370 43N160W 43N150W 41N140W 39N130W/N0480F390 DCT DACEM DCT PIRAT DCT BURGL IRNMN2 |
| Aircraft | A359/H-SDE2E3GHIJ3J4J5LM1ORWXY/LB1D1 |
Departure
| Time | N/A |
|---|---|
| Airport | Taiwan Taoyuan International Airport (RCTP) |
Arrival
| Time | 2026-04-24 15:10 |
|---|---|
| Airport | Los Angeles International Airport (KLAX) |
| Time | Latitude | Longitude | Altitude | Speed | Heading |
|---|---|---|---|---|---|
| 2026-04-24 14:12 | 38.20575 | -126.05249 | 35094 ft | 521 kts | 110° |
| 2026-04-24 14:12 | 38.18133 | -125.96545 | 35092 ft | 521 kts | 110° |
| 2026-04-24 14:13 | 38.15266 | -125.86363 | 35091 ft | 519 kts | 110° |
| 2026-04-24 14:13 | 38.05867 | -125.53255 | 35080 ft | 520 kts | 111° |
| 2026-04-24 14:14 | 37.95945 | -125.18746 | 35072 ft | 519 kts | 111° |
| 2026-04-24 14:14 | 37.80926 | -124.67335 | 35059 ft | 520 kts | 112° |
| 2026-04-24 14:15 | 37.70752 | -124.33051 | 35050 ft | 521 kts | 112° |
| 2026-04-24 14:15 | 37.60473 | -123.98843 | 35042 ft | 521 kts | 112° |
| 2026-04-24 14:16 | 37.52200 | -123.71611 | 35037 ft | 520 kts | 112° |
| 2026-04-24 14:17 | 37.48292 | -123.58840 | 35035 ft | 519 kts | 113° |
| 2026-04-24 14:17 | 37.44396 | -123.46165 | 35034 ft | 520 kts | 113° |
| 2026-04-24 14:18 | 37.41773 | -123.37666 | 35037 ft | 520 kts | 113° |
| 2026-04-24 14:18 | 37.39143 | -123.29167 | 35037 ft | 520 kts | 113° |
| 2026-04-24 14:19 | 37.36523 | -123.20729 | 35037 ft | 521 kts | 113° |
| 2026-04-24 14:19 | 37.33872 | -123.12216 | 35035 ft | 522 kts | 113° |
| 2026-04-24 14:20 | 37.31237 | -123.03776 | 35037 ft | 522 kts | 113° |
| 2026-04-24 14:20 | 37.28577 | -122.95283 | 35037 ft | 522 kts | 114° |
| 2026-04-24 14:21 | 37.25761 | -122.86879 | 35043 ft | 520 kts | 121° |
| 2026-04-24 14:21 | 37.21901 | -122.79273 | 35036 ft | 519 kts | 127° |
| 2026-04-24 14:22 | 37.17772 | -122.71833 | 35034 ft | 519 kts | 128° |
| 2026-04-24 14:23 | 37.11516 | -122.60723 | 35030 ft | 520 kts | 128° |
| 2026-04-24 14:23 | 37.07375 | -122.53336 | 35034 ft | 520 kts | 128° |
| 2026-04-24 14:24 | 37.03210 | -122.45906 | 35032 ft | 520 kts | 128° |
| 2026-04-24 14:24 | 36.99073 | -122.38539 | 35032 ft | 521 kts | 128° |
| 2026-04-24 14:25 | 36.95597 | -122.32362 | 35039 ft | 521 kts | 128° |
| 2026-04-24 14:25 | 36.90709 | -122.23697 | 35040 ft | 521 kts | 128° |
| 2026-04-24 14:26 | 36.86541 | -122.16326 | 35028 ft | 522 kts | 129° |
| 2026-04-24 14:26 | 36.82337 | -122.08908 | 35043 ft | 523 kts | 129° |
| 2026-04-24 14:27 | 36.78124 | -122.01490 | 35046 ft | 523 kts | 129° |
| 2026-04-24 14:27 | 36.73943 | -121.94144 | 35043 ft | 523 kts | 129° |
| 2026-04-24 14:28 | 36.69716 | -121.86735 | 35036 ft | 524 kts | 129° |
| 2026-04-24 14:28 | 36.65508 | -121.79374 | 35028 ft | 524 kts | 129° |
| 2026-04-24 14:29 | 36.61261 | -121.71959 | 35033 ft | 524 kts | 129° |
| 2026-04-24 14:29 | 36.57044 | -121.64615 | 35029 ft | 525 kts | 130° |
| 2026-04-24 14:30 | 36.53497 | -121.58452 | 35038 ft | 525 kts | 130° |
| 2026-04-24 14:30 | 36.48543 | -121.49862 | 35050 ft | 525 kts | 130° |
| 2026-04-24 14:31 | 36.44269 | -121.42467 | 35046 ft | 526 kts | 130° |
| 2026-04-24 14:31 | 36.40010 | -121.35114 | 35044 ft | 527 kts | 130° |
| 2026-04-24 14:32 | 36.35724 | -121.27729 | 35037 ft | 527 kts | 130° |
| 2026-04-24 14:32 | 36.32151 | -121.21586 | 35039 ft | 527 kts | 131° |
| 2026-04-24 14:33 | 36.27155 | -121.13014 | 35040 ft | 527 kts | 131° |
| 2026-04-24 14:33 | 36.23582 | -121.06896 | 35034 ft | 527 kts | 131° |
| 2026-04-24 14:34 | 36.19279 | -120.99543 | 35031 ft | 526 kts | 131° |
| 2026-04-24 14:34 | 36.14986 | -120.92224 | 35019 ft | 527 kts | 131° |
| 2026-04-24 14:35 | 36.10667 | -120.84875 | 35024 ft | 528 kts | 131° |
| 2026-04-24 14:35 | 36.06341 | -120.77530 | 35028 ft | 528 kts | 131° |
| 2026-04-24 14:36 | 36.02037 | -120.70236 | 35024 ft | 529 kts | 132° |
| 2026-04-24 14:36 | 35.97697 | -120.62899 | 35028 ft | 530 kts | 132° |
| 2026-04-24 14:37 | 35.93332 | -120.55536 | 35026 ft | 530 kts | 132° |
| 2026-04-24 14:37 | 35.88968 | -120.48189 | 35008 ft | 530 kts | 132° |
| 2026-04-24 14:38 | 35.84624 | -120.40893 | 35043 ft | 531 kts | 132° |
| 2026-04-24 14:38 | 35.80222 | -120.33515 | 35042 ft | 532 kts | 132° |
| 2026-04-24 14:39 | 35.75863 | -120.26223 | 35025 ft | 532 kts | 133° |
| 2026-04-24 14:39 | 35.71458 | -120.18872 | 35018 ft | 533 kts | 133° |
| 2026-04-24 14:40 | 35.66953 | -120.11674 | 35014 ft | 527 kts | 141° |
| 2026-04-24 14:40 | 35.64174 | -120.08866 | 35024 ft | 511 kts | 154° |
| 2026-04-24 14:40 | 35.61165 | -120.06545 | 35017 ft | 508 kts | 156° |
| 2026-04-24 14:41 | 35.55135 | -120.02078 | 35004 ft | 508 kts | 156° |
| 2026-04-24 14:41 | 35.49078 | -119.97555 | 35009 ft | 509 kts | 156° |
| 2026-04-24 14:42 | 35.43019 | -119.93013 | 35007 ft | 510 kts | 156° |
| 2026-04-24 14:42 | 35.37019 | -119.88511 | 34551 ft | 503 kts | 156° |
| 2026-04-24 14:42 | 35.34036 | -119.86276 | 33994 ft | 499 kts | 157° |
| 2026-04-24 14:43 | 35.31087 | -119.84068 | 33412 ft | 494 kts | 157° |
| 2026-04-24 14:43 | 35.28210 | -119.81757 | 32886 ft | 494 kts | 152° |
| 2026-04-24 14:43 | 35.25464 | -119.79246 | 32375 ft | 491 kts | 151° |
| 2026-04-24 14:43 | 35.22759 | -119.76710 | 31875 ft | 487 kts | 151° |
| 2026-04-24 14:44 | 35.20110 | -119.74225 | 31372 ft | 482 kts | 151° |
| 2026-04-24 14:44 | 35.17457 | -119.71741 | 30891 ft | 478 kts | 152° |
| 2026-04-24 14:44 | 35.14824 | -119.69281 | 30407 ft | 474 kts | 152° |
| 2026-04-24 14:44 | 35.12228 | -119.66860 | 29905 ft | 471 kts | 152° |
| 2026-04-24 14:45 | 35.09636 | -119.64444 | 29398 ft | 466 kts | 152° |
| 2026-04-24 14:45 | 35.07066 | -119.62052 | 28937 ft | 461 kts | 151° |
| 2026-04-24 14:45 | 35.04524 | -119.59687 | 28413 ft | 456 kts | 151° |
| 2026-04-24 14:45 | 35.02007 | -119.57347 | 27975 ft | 451 kts | 151° |
| 2026-04-24 14:46 | 34.99518 | -119.55036 | 27519 ft | 446 kts | 151° |
| 2026-04-24 14:46 | 34.97087 | -119.52782 | 27076 ft | 442 kts | 151° |
| 2026-04-24 14:46 | 34.94637 | -119.50511 | 26614 ft | 439 kts | 151° |
| 2026-04-24 14:46 | 34.92218 | -119.48271 | 26168 ft | 435 kts | 150° |
| 2026-04-24 14:47 | 34.89801 | -119.46055 | 25712 ft | 431 kts | 151° |
| 2026-04-24 14:47 | 34.87404 | -119.43911 | 25267 ft | 427 kts | 151° |
| 2026-04-24 14:47 | 34.85031 | -119.41797 | 24813 ft | 424 kts | 152° |
| 2026-04-24 14:47 | 34.82659 | -119.39683 | 24387 ft | 421 kts | 151° |
| 2026-04-24 14:48 | 34.80297 | -119.37576 | 23949 ft | 419 kts | 151° |
| 2026-04-24 14:48 | 34.77958 | -119.35487 | 23565 ft | 415 kts | 151° |
| 2026-04-24 14:48 | 34.75635 | -119.33416 | 23056 ft | 412 kts | 151° |
| 2026-04-24 14:48 | 34.73355 | -119.31396 | 22622 ft | 408 kts | 151° |
| 2026-04-24 14:49 | 34.71061 | -119.29392 | 22217 ft | 405 kts | 151° |
| 2026-04-24 14:49 | 34.68773 | -119.27398 | 21803 ft | 404 kts | 151° |
| 2026-04-24 14:49 | 34.66495 | -119.25413 | 21396 ft | 400 kts | 151° |
| 2026-04-24 14:49 | 34.64242 | -119.23452 | 20974 ft | 397 kts | 150° |
| 2026-04-24 14:50 | 34.61994 | -119.21511 | 20580 ft | 393 kts | 151° |
| 2026-04-24 14:50 | 34.59795 | -119.19620 | 20192 ft | 390 kts | 150° |
| 2026-04-24 14:50 | 34.57587 | -119.17721 | 19801 ft | 387 kts | 150° |
| 2026-04-24 14:50 | 34.55393 | -119.15830 | 19419 ft | 384 kts | 149° |
| 2026-04-24 14:51 | 34.53233 | -119.13917 | 19027 ft | 382 kts | 149° |
| 2026-04-24 14:51 | 34.51097 | -119.12011 | 18637 ft | 379 kts | 149° |
| 2026-04-24 14:51 | 34.49003 | -119.10148 | 18255 ft | 377 kts | 149° |
| 2026-04-24 14:51 | 34.46882 | -119.08266 | 17835 ft | 375 kts | 149° |
| 2026-04-24 14:52 | 34.44798 | -119.06421 | 17483 ft | 373 kts | 149° |
| 2026-04-24 14:52 | 34.42705 | -119.04581 | 17085 ft | 371 kts | 149° |
| 2026-04-24 14:52 | 34.40616 | -119.02771 | 16724 ft | 368 kts | 149° |
| 2026-04-24 14:52 | 34.38531 | -119.00970 | 16359 ft | 366 kts | 149° |
| 2026-04-24 14:53 | 34.36463 | -118.99183 | 15995 ft | 364 kts | 149° |
| 2026-04-24 14:53 | 34.34405 | -118.97404 | 15634 ft | 363 kts | 149° |
| 2026-04-24 14:53 | 34.32367 | -118.95608 | 15262 ft | 361 kts | 148° |
| 2026-04-24 14:53 | 34.30361 | -118.93777 | 14897 ft | 360 kts | 147° |
| 2026-04-24 14:54 | 34.28385 | -118.91969 | 14683 ft | 351 kts | 147° |
| 2026-04-24 14:54 | 34.26492 | -118.90239 | 14542 ft | 339 kts | 147° |
| 2026-04-24 14:54 | 34.24632 | -118.88544 | 14326 ft | 330 kts | 147° |
| 2026-04-24 14:54 | 34.22810 | -118.86869 | 13996 ft | 326 kts | 147° |
| 2026-04-24 14:55 | 34.21619 | -118.85772 | 13752 ft | 324 kts | 147° |
| 2026-04-24 14:55 | 34.19249 | -118.83593 | 13194 ft | 321 kts | 147° |
| 2026-04-24 14:55 | 34.17462 | -118.81953 | 12785 ft | 318 kts | 147° |
| 2026-04-24 14:55 | 34.15737 | -118.80360 | 12436 ft | 315 kts | 146° |
| 2026-04-24 14:56 | 34.14083 | -118.78608 | 11954 ft | 317 kts | 140° |
| 2026-04-24 14:56 | 34.12479 | -118.76802 | 11589 ft | 313 kts | 140° |
| 2026-04-24 14:56 | 34.10891 | -118.75025 | 11270 ft | 309 kts | 140° |
| 2026-04-24 14:56 | 34.09303 | -118.73270 | 10961 ft | 307 kts | 140° |
| 2026-04-24 14:57 | 34.07723 | -118.71540 | 10703 ft | 303 kts | 140° |
| 2026-04-24 14:57 | 34.06205 | -118.69882 | 10496 ft | 295 kts | 141° |
| 2026-04-24 14:57 | 34.04690 | -118.68233 | 10266 ft | 291 kts | 141° |
| 2026-04-24 14:57 | 34.03350 | -118.66395 | 10039 ft | 293 kts | 122° |
| 2026-04-24 14:58 | 34.02729 | -118.64107 | 9888 ft | 284 kts | 99° |
| 2026-04-24 14:58 | 34.02491 | -118.61784 | 9739 ft | 274 kts | 96° |
| 2026-04-24 14:58 | 34.02297 | -118.59543 | 9479 ft | 269 kts | 96° |
| 2026-04-24 14:58 | 34.02101 | -118.57320 | 9096 ft | 264 kts | 96° |
| 2026-04-24 14:59 | 34.01903 | -118.55135 | 8562 ft | 261 kts | 96° |
| 2026-04-24 14:59 | 34.01707 | -118.53001 | 8297 ft | 253 kts | 96° |
| 2026-04-24 14:59 | 34.01509 | -118.50880 | 8073 ft | 254 kts | 97° |
| 2026-04-24 14:59 | 34.01312 | -118.48770 | 7818 ft | 252 kts | 97° |
| 2026-04-24 15:00 | 34.01123 | -118.46685 | 7564 ft | 250 kts | 95° |
| 2026-04-24 15:00 | 34.01208 | -118.44601 | 7296 ft | 248 kts | 80° |
| 2026-04-24 15:00 | 34.01532 | -118.42575 | 6922 ft | 249 kts | 77° |
| 2026-04-24 15:00 | 34.01896 | -118.40529 | 6604 ft | 248 kts | 77° |
| 2026-04-24 15:01 | 34.02255 | -118.38504 | 6342 ft | 245 kts | 77° |
| 2026-04-24 15:01 | 34.02604 | -118.36511 | 6087 ft | 241 kts | 78° |
| 2026-04-24 15:01 | 34.02929 | -118.34525 | 5959 ft | 241 kts | 81° |
| 2026-04-24 15:01 | 34.03135 | -118.32519 | 5944 ft | 240 kts | 84° |
| 2026-04-24 15:02 | 34.03313 | -118.30511 | 5947 ft | 238 kts | 84° |
| 2026-04-24 15:02 | 34.03492 | -118.28616 | 5938 ft | 226 kts | 83° |
| 2026-04-24 15:02 | 34.03691 | -118.26746 | 5944 ft | 225 kts | 82° |
| 2026-04-24 15:02 | 34.03898 | -118.24871 | 5928 ft | 224 kts | 82° |
| 2026-04-24 15:03 | 34.04103 | -118.23032 | 5690 ft | 219 kts | 82° |
| 2026-04-24 15:03 | 34.04303 | -118.21233 | 5438 ft | 215 kts | 82° |
| 2026-04-24 15:03 | 34.04500 | -118.19455 | 5108 ft | 215 kts | 82° |
| 2026-04-24 15:03 | 34.04638 | -118.17655 | 4745 ft | 215 kts | 92° |
| 2026-04-24 15:04 | 34.04148 | -118.15995 | 4395 ft | 211 kts | 128° |
| 2026-04-24 15:04 | 34.03008 | -118.15010 | 4166 ft | 204 kts | 164° |
| 2026-04-24 15:04 | 34.01619 | -118.14777 | 3980 ft | 201 kts | 179° |
| 2026-04-24 15:04 | 34.00217 | -118.14759 | 3814 ft | 200 kts | 181° |
| 2026-04-24 15:05 | 33.98886 | -118.15166 | 3639 ft | 199 kts | 212° |
| 2026-04-24 15:05 | 33.98001 | -118.16407 | 3554 ft | 197 kts | 243° |
| 2026-04-24 15:05 | 33.97545 | -118.17964 | 3446 ft | 198 kts | 257° |
| 2026-04-24 15:05 | 33.97355 | -118.19610 | 3352 ft | 199 kts | 262° |
| 2026-04-24 15:06 | 33.97170 | -118.21247 | 3224 ft | 199 kts | 260° |
| 2026-04-24 15:06 | 33.96986 | -118.22905 | 2972 ft | 199 kts | 261° |
| 2026-04-24 15:06 | 33.96818 | -118.24560 | 2705 ft | 198 kts | 262° |
| 2026-04-24 15:06 | 33.96651 | -118.26199 | 2421 ft | 195 kts | 261° |
| 2026-04-24 15:07 | 33.96486 | -118.27802 | 2160 ft | 191 kts | 261° |
| 2026-04-24 15:07 | 33.96326 | -118.29355 | 1913 ft | 186 kts | 261° |
| 2026-04-24 15:07 | 33.96171 | -118.30871 | 1662 ft | 177 kts | 261° |
| 2026-04-24 15:07 | 33.96021 | -118.32323 | 1430 ft | 170 kts | 261° |
| 2026-04-24 15:08 | 33.95880 | -118.33694 | 1193 ft | 160 kts | 261° |
| 2026-04-24 15:08 | 33.95751 | -118.34985 | 1011 ft | 150 kts | 261° |
| 2026-04-24 15:08 | 33.95618 | -118.36208 | 825 ft | 147 kts | 262° |
| 2026-04-24 15:08 | 33.95489 | -118.37444 | 607 ft | 148 kts | 263° |
| 2026-04-24 15:09 | 33.95366 | -118.38673 | 397 ft | 148 kts | 264° |
| 2026-04-24 15:09 | 33.95242 | -118.39886 | 175 ft | 148 kts | 263° |
| 2026-04-24 15:09 | 33.95120 | -118.41087 | 103 ft | 135 kts | 263° |
| 2026-04-24 15:09 | 33.95030 | -118.41961 | 100 ft | 69 kts | 263° |
| 2026-04-24 15:10 | 33.94961 | -118.42343 | 103 ft | 31 kts | 236° |
| 2026-04-24 15:10 | 33.94905 | -118.42423 | 101 ft | 3 kts | 225° |
| 2026-04-24 15:10 | 33.94875 | -118.42457 | 105 ft | 9 kts | 221° |
| 2026-04-24 15:10 | 33.94808 | -118.42493 | 105 ft | 12 kts | 187° |
| 2026-04-24 15:11 | 33.94715 | -118.42483 | 104 ft | 17 kts | 173° |
| 2026-04-24 15:11 | 33.94668 | -118.42392 | 103 ft | 15 kts | 87° |
| 2026-04-24 15:11 | 33.94679 | -118.42270 | 101 ft | 15 kts | 83° |
| 2026-04-24 15:11 | 33.94691 | -118.42140 | 101 ft | 16 kts | 84° |
| 2026-04-24 15:12 | 33.94706 | -118.42005 | 102 ft | 16 kts | 83° |
| 2026-04-24 15:12 | 33.94733 | -118.41734 | 101 ft | 15 kts | 83° |
| 2026-04-24 15:12 | 33.94746 | -118.41600 | 102 ft | 17 kts | 83° |
| 2026-04-24 15:13 | 33.94757 | -118.41496 | 102 ft | 12 kts | 83° |
| 2026-04-24 15:13 | 33.94775 | -118.41402 | 103 ft | 11 kts | 73° |
| 2026-04-24 15:13 | 33.94778 | -118.41316 | 100 ft | 9 kts | 126° |
| 2026-04-24 15:13 | 33.94712 | -118.41287 | 100 ft | 12 kts | 170° |
| 2026-04-24 15:14 | 33.94618 | -118.41273 | 100 ft | 15 kts | 173° |
| 2026-04-24 15:14 | 33.94508 | -118.41258 | 100 ft | 17 kts | 172° |
| 2026-04-24 15:14 | 33.94393 | -118.41240 | 102 ft | 15 kts | 173° |
| 2026-04-24 15:14 | 33.94284 | -118.41223 | 102 ft | 16 kts | 173° |
| 2026-04-24 15:15 | 33.94179 | -118.41207 | 102 ft | 12 kts | 172° |
| 2026-04-24 15:15 | 33.94084 | -118.41193 | 100 ft | 14 kts | 173° |
| 2026-04-24 15:15 | 33.94009 | -118.41182 | 100 ft | 11 kts | 173° |
| 2026-04-24 15:15 | 33.93945 | -118.41164 | 100 ft | 6 kts | 138° |
| 2026-04-24 15:16 | 33.93937 | -118.41122 | 101 ft | 4 kts | 88° |
| 2026-04-24 15:16 | 33.93940 | -118.41095 | 103 ft | 1 kts | 84° |
| 2026-04-24 15:16 | 33.93940 | -118.41091 | 103 ft | 0 kts | 84° |
| 2026-04-24 15:16 | 33.93943 | -118.41066 | 101 ft | 1 kts | 83° |
| 2026-04-24 15:17 | 33.93944 | -118.41055 | 100 ft | 1 kts | 83° |
| 2026-04-24 15:17 | 33.93944 | -118.41052 | 101 ft | 0 kts | 83° |